Skip to Main Content
SEARCH:
Location Air RH Dwp Precip Type Wind Speed Wind Gust Direction Pavement Temperature Date/Time
Hatem Bridge US 40 E/B 42 78 36 None Calm Calm SW 42 - 42 1/22/2018 3:30:00 AM
I-270 at I-370 51 71 42 None Calm Calm SE 47 - 51 1/22/2018 3:30:00 AM
I-270 at MD-109 42 86 38 None Calm Calm NW 43 - 43 1/22/2018 3:30:00 AM
I-495 at American Legion Bridge 46 83 41 None Calm 6 mph NE 47 - 48 1/22/2018 3:30:00 AM
I-68 at Savage Mt 49 92 47 None Calm 4 mph SW 44 - 45 1/22/2018 3:30:00 AM
I-68 at Sideling Hill 51 85 47 None Calm 4 mph W 47 - 47 1/22/2018 3:30:00 AM
I-68 at US 219 49 88 46 None 7 mph 13 mph SW 43 - 46 1/22/2018 3:30:00 AM
I-68 at WV Line 51 78 45 None Calm 7 mph W 45 - 49 1/22/2018 3:30:00 AM
I-695 at I-83 41 78 35 None Calm Calm N 43 - 45 1/22/2018 3:30:00 AM
I-695 on FSK Bridge 47 72 38 None Calm Calm SE - 1/22/2018 3:31:00 AM
I-70 at Fred-Wash Co. 54 75 46 None Calm 6 mph E 50 - 51 1/22/2018 3:30:00 AM
I-70 at I-695 42 82 37 None Calm Calm SW 45 - 46 1/22/2018 3:30:00 AM
I-70 at I-81 45 78 39 None Calm Calm N - 1/22/2018 3:30:00 AM
I-70 at MD-27 52 73 43 None Calm 10 mph S 48 - 50 1/22/2018 3:30:00 AM
I-70 at MD-32 43 82 38 None Calm Calm N 42 - 46 1/22/2018 3:30:00 AM
I-83 at MD-137 44 84 40 None Calm Calm E 45 - 45 1/22/2018 3:30:00 AM
I-95 at I-695 NE 43 75 36 None Calm Calm E 43 - 46 1/22/2018 3:30:00 AM
I-95 at Patuxent River 52 68 42 None Calm 7 mph SW 49 - 50 1/22/2018 3:30:00 AM
I-95 at Tydings Bridge 42 75 34 None Calm Calm N - 1/22/2018 3:30:00 AM
I-95/495 at I-295 58 51 40 None Calm 5 mph S 51 - 52 1/22/2018 3:30:00 AM
I-97 at MD-100 43 78 37 None Calm Calm NE 45 - 46 1/22/2018 3:30:00 AM
I-97 at MD-32 52 62 40 None 5 mph 7 mph N 47 - 48 1/22/2018 3:30:00 AM
MD 20 at MD 21 47 69 37 None Calm 6 mph SW 44 - 44 1/22/2018 3:30:00 AM
MD 231 at Patuxent River 45 74 37 None 4 mph 6 mph S 44 - 45 1/22/2018 3:30:00 AM
MD 260 at Cox Rd 53 57 39 None 4 mph 11 mph S 47 - 47 1/22/2018 3:30:00 AM
MD-135 at Salt Dome 49 93 47 None Calm 6 mph SW 43 - 43 1/22/2018 3:30:00 AM
MD-140 at MD-97 46 77 39 None Calm Calm N 48 - 48 1/22/2018 3:30:00 AM
MD-200 EB at Bonifant Rd 47 78 40 None Calm Calm N 42 - 43 1/22/2018 3:30:00 AM
MD-200 WB at Muncaster Mill Rd 42 81 37 None Calm Calm NW 42 - 44 1/22/2018 3:30:00 AM
MD-213 at Sassafras River 41 92 39 None Calm Calm NE 42 - 42 1/22/2018 3:30:00 AM
MD-24 at Rock St Park 37 93 36 None Calm Calm N 36 - 36 1/22/2018 3:30:00 AM
MD-30 at PA Line 50 80 44 None Calm 8 mph S 46 - 46 1/22/2018 3:30:00 AM
MD-33 at Knapps Narrows Drawbridge 45 72 37 None Calm 5 mph SE 45 - 45 1/22/2018 3:30:00 AM
MD-344 at MD-224 52 70 42 None Calm Calm SE 44 - 44 1/22/2018 3:30:00 AM
MD-4 at Patuxent River 50 66 39 None - - No Data Available 47 - 49 1/22/2018 3:25:00 AM
MD-404 at Choptank River 49 66 38 None 7 mph 12 mph S 47 - 48 1/22/2018 3:30:00 AM
MD-43 at MD-150 42 83 38 None Calm Calm N 43 - 44 1/22/2018 3:30:00 AM
MD-51 at Oldtown Salt Dome 39 91 37 None Calm Calm E 43 - 43 1/22/2018 3:30:00 AM
MD-64 at MD-418 44 86 40 None Calm Calm N 44 - 46 1/22/2018 3:30:00 AM
US 301 at MD 305 50 63 39 None 6 mph 10 mph S 46 - 47 1/22/2018 3:30:00 AM
US-1 at Baltimore / Harford Co. Line 37 83 32 None Calm Calm NW 39 - 40 1/22/2018 3:30:00 AM
US-1 at Conowingo Dam 40 90 37 None Calm Calm N 42 - 42 1/22/2018 3:30:00 AM
US-13 at US-113 50 71 41 None 4 mph 8 mph SW 47 - 47 1/22/2018 3:30:00 AM
US-13 at US-50 49 71 41 None 4 mph 10 mph SW - 1/22/2018 3:30:00 AM
US-15 at MD-140 42 82 37 None Calm Calm E 44 - 46 1/22/2018 3:30:00 AM
US-301 at MD-5 51 62 39 None 5 mph 9 mph S 48 - 52 1/22/2018 3:30:00 AM
US-301 at Potomac 54 59 40 None 6 mph 9 mph SE 48 - 51 1/22/2018 3:30:00 AM
US-301 on HWN Bridge - - - None - - No Data Available 51 - 51 1/22/2018 3:31:00 AM
US-340 at MD-180 40 80 35 None Calm Calm N 43 - 46 1/22/2018 3:30:00 AM
US-50 at Choptank 44 86 40 None Calm 5 mph SE 44 - 44 1/22/2018 3:30:00 AM
US-50 at I-95 56 61 43 None 4 mph 11 mph SW 51 - 54 1/22/2018 3:30:00 AM
US-50 at MD-2 45 75 38 None Calm Calm SE 45 - 46 1/22/2018 3:30:00 AM
US-50 at MD-331 46 74 38 None 7 mph 11 mph SW 44 - 50 1/22/2018 3:30:00 AM
US-50 at OC Drawbridge 46 80 40 None Calm 6 mph SW 44 - 44 1/22/2018 3:30:00 AM
US-50 at Table Rock Rd 50 91 47 None Calm 11 mph W 45 - 45 1/22/2018 3:30:00 AM
US-50 Kent Narrow Bridge 40 86 37 None 5 mph 8 mph SE 42 - 43 1/22/2018 3:30:00 AM
WPL Pier 31 49 62 37 None 4 mph 10 mph SE 47 - 47 1/22/2018 3:30:00 AM
Location Air RH Dwp Precip Type Wind Speed Wind Gust Direction Pavement Temperature Date/Time